Time;durP1;ratioP1;P1;durP2;ratioP2;P2;SDS_P1;SDS_P2;PMS_P1;PMS_P2;Temp;Humidity;BMP_temperature;BMP_pressure;BME280_temperature;BME280_humidity;BME280_pressure;Samples;Min_cycle;Max_cycle;Signal;HPM_P1;HPM_P2
2024/02/22 00:00:58;;;;;;;7.55;4.20;;;10.10;99.90;;;;;;5066092;28;20041;-74
2024/02/22 00:03:23;;;;;;;5.85;3.88;;;10.10;99.90;;;;;;5066316;28;20051;-74
2024/02/22 00:05:49;;;;;;;6.60;3.78;;;10.10;99.90;;;;;;5061681;28;20043;-76
2024/02/22 00:08:15;;;;;;;5.93;3.70;;;10.10;99.90;;;;;;5069392;28;20040;-75
2024/02/22 00:10:41;;;;;;;10.18;3.92;;;10.10;99.90;;;;;;5047658;28;20033;-73
2024/02/22 00:13:07;;;;;;;5.78;3.75;;;10.10;99.90;;;;;;5050214;28;20039;-74
2024/02/22 00:15:32;;;;;;;5.90;3.17;;;10.10;99.90;;;;;;5069660;28;20405;-76
2024/02/22 00:17:58;;;;;;;6.18;3.80;;;10.10;99.90;;;;;;5071988;28;20031;-74
2024/02/22 00:20:23;;;;;;;6.20;3.65;;;10.10;99.90;;;;;;5065443;28;20441;-74
2024/02/22 00:22:49;;;;;;;7.35;3.63;;;10.10;99.90;;;;;;5061716;28;20037;-75
2024/02/22 00:25:15;;;;;;;6.22;3.95;;;10.10;99.90;;;;;;5050081;28;20040;-76
2024/02/22 00:27:41;;;;;;;5.93;3.67;;;10.20;99.90;;;;;;5067953;28;20409;-74
2024/02/22 00:30:12;;;;;;;6.28;3.67;;;10.10;99.90;;;;;;5049901;28;20032;-74
2024/02/22 00:32:38;;;;;;;5.57;3.38;;;10.10;99.90;;;;;;5068302;28;20119;-73
2024/02/22 00:35:05;;;;;;;6.55;3.60;;;10.20;99.90;;;;;;5049644;28;20052;-74
2024/02/22 00:37:35;;;;;;;6.50;3.83;;;10.10;99.90;;;;;;5050084;28;20065;-74
2024/02/22 00:40:04;;;;;;;6.28;3.78;;;10.10;99.90;;;;;;5043071;28;20033;-75
2024/02/22 00:42:33;;;;;;;7.05;4.20;;;10.20;99.90;;;;;;5067860;28;20119;-76
2024/02/22 00:44:58;;;;;;;5.85;3.58;;;10.20;99.90;;;;;;5066936;28;20135;-75
2024/02/22 00:47:24;;;;;;;6.07;3.50;;;10.20;99.90;;;;;;5049426;28;20214;-74
2024/02/22 00:49:50;;;;;;;6.43;4.25;;;10.20;99.90;;;;;;5049782;28;20105;-75
2024/02/22 00:52:16;;;;;;;6.55;3.90;;;10.20;99.90;;;;;;5066736;28;20124;-74
2024/02/22 00:54:42;;;;;;;9.73;3.85;;;10.20;99.90;;;;;;5048886;28;20044;-74
2024/02/22 00:57:07;;;;;;;6.13;3.78;;;10.20;99.90;;;;;;5042251;28;20039;-75
2024/02/22 00:59:33;;;;;;;5.72;3.60;;;10.20;99.90;;;;;;5065428;28;20029;-74
2024/02/22 01:01:59;;;;;;;6.05;3.60;;;10.20;99.90;;;;;;5066407;28;20096;-75
2024/02/22 01:04:28;;;;;;;6.07;3.47;;;10.20;99.90;;;;;;5069850;28;20040;-75
2024/02/22 01:06:55;;;;;;;5.15;3.30;;;10.20;99.90;;;;;;5050874;28;20138;-74
2024/02/22 01:09:21;;;;;;;6.13;3.35;;;10.20;99.90;;;;;;5062210;28;20523;-74
2024/02/22 01:11:47;;;;;;;5.65;3.30;;;10.20;99.90;;;;;;5066246;28;20039;-74
2024/02/22 01:14:13;;;;;;;5.90;3.45;;;10.20;99.90;;;;;;5058922;28;20043;-74
2024/02/22 01:16:39;;;;;;;7.88;3.63;;;10.20;99.90;;;;;;5064348;28;20033;-75
2024/02/22 01:19:04;;;;;;;6.05;3.10;;;10.20;99.90;;;;;;5044722;28;20039;-75
2024/02/22 01:21:30;;;;;;;6.03;3.38;;;10.20;99.90;;;;;;5046324;28;20440;-76
2024/02/22 01:23:56;;;;;;;5.85;3.22;;;10.20;99.90;;;;;;5060136;28;20039;-74
2024/02/22 01:26:22;;;;;;;5.88;3.15;;;10.20;99.90;;;;;;5063928;28;20078;-75
2024/02/22 01:28:50;;;;;;;8.63;3.70;;;10.20;99.90;;;;;;5064462;28;20115;-73
2024/02/22 01:31:16;;;;;;;4.90;3.15;;;10.20;99.90;;;;;;5059386;28;20025;-75
2024/02/22 01:33:43;;;;;;;8.63;3.20;;;10.20;99.90;;;;;;5046111;28;20029;-75
2024/02/22 01:36:10;;;;;;;8.38;3.90;;;10.20;99.90;;;;;;5060288;28;20055;-75
2024/02/22 01:38:35;;;;;;;6.65;3.58;;;10.20;99.90;;;;;;5063887;28;20033;-75
2024/02/22 01:41:02;;;;;;;7.68;3.95;;;10.20;99.90;;;;;;5043750;28;20032;-75
2024/02/22 01:43:28;;;;;;;7.20;3.85;;;10.20;99.90;;;;;;5063161;28;20389;-74
2024/02/22 01:45:54;;;;;;;8.20;3.80;;;10.20;99.90;;;;;;5044702;28;20047;-75
2024/02/22 01:48:19;;;;;;;11.63;3.63;;;10.20;99.90;;;;;;5061092;28;20037;-74
2024/02/22 01:50:52;;;;;;;13.45;4.25;;;10.20;99.90;;;;;;5058450;28;20528;-75
2024/02/22 01:53:28;;;;;;;11.13;3.65;;;10.30;99.90;;;;;;5055897;28;20525;-74
2024/02/22 01:55:58;;;;;;;12.35;4.15;;;10.20;99.90;;;;;;5060715;28;20029;-74
2024/02/22 01:58:31;;;;;;;10.98;3.70;;;10.30;99.90;;;;;;5043166;28;20036;-75
2024/02/22 02:00:58;;;;;;;15.00;4.25;;;10.30;99.90;;;;;;5042446;28;20032;-73
2024/02/22 02:03:24;;;;;;;16.13;4.55;;;10.30;99.90;;;;;;5045408;28;20123;-73
2024/02/22 02:05:50;;;;;;;15.90;4.45;;;10.30;99.90;;;;;;5061725;28;20435;-74
2024/02/22 02:08:16;;;;;;;22.08;5.43;;;10.20;99.90;;;;;;5059769;28;20039;-75
2024/02/22 02:10:41;;;;;;;28.52;5.40;;;10.30;99.90;;;;;;5038474;28;20103;-74
2024/02/22 02:13:07;;;;;;;18.55;5.70;;;10.30;99.90;;;;;;5040442;28;20120;-76
2024/02/22 02:15:32;;;;;;;34.58;5.85;;;10.30;99.90;;;;;;5061548;28;20496;-75
2024/02/22 02:17:58;;;;;;;30.45;6.00;;;10.20;99.90;;;;;;5040828;28;20024;-75
2024/02/22 02:20:27;;;;;;;33.05;5.80;;;10.30;99.90;;;;;;5059872;28;20028;-75
2024/02/22 02:23:06;;;;;;;26.27;5.70;;;10.30;99.90;;;;;;5060178;28;20036;-75
2024/02/22 02:25:32;;;;;;;34.15;5.70;;;10.20;99.90;;;;;;5059922;28;20060;-76
2024/02/22 02:27:58;;;;;;;22.48;4.88;;;10.20;99.90;;;;;;5058199;28;20032;-76
2024/02/22 02:30:23;;;;;;;24.58;5.80;;;10.20;99.90;;;;;;5062767;28;20039;-76
2024/02/22 02:32:49;;;;;;;30.63;6.65;;;10.30;99.90;;;;;;5059824;28;20470;-75
2024/02/22 02:35:14;;;;;;;25.70;4.20;;;10.30;99.90;;;;;;5057693;28;20032;-76
2024/02/22 02:37:40;;;;;;;33.63;6.07;;;10.20;99.90;;;;;;5062331;28;20029;-76
2024/02/22 02:40:06;;;;;;;28.90;5.88;;;10.20;99.90;;;;;;5061087;28;20067;-77
2024/02/22 02:42:32;;;;;;;29.92;4.47;;;10.20;99.90;;;;;;5058678;28;20032;-77
2024/02/22 02:44:57;;;;;;;27.00;4.88;;;10.20;99.90;;;;;;5054632;28;20032;-76
2024/02/22 02:47:23;;;;;;;29.48;4.95;;;10.20;99.90;;;;;;5057514;28;20474;-76
2024/02/22 02:49:49;;;;;;;38.53;4.80;;;10.30;99.90;;;;;;5053748;28;20036;-76
2024/02/22 02:52:14;;;;;;;22.65;4.30;;;10.30;99.90;;;;;;5041089;28;20032;-76
2024/02/22 02:54:40;;;;;;;27.70;4.25;;;10.30;99.90;;;;;;5042174;28;20028;-77
2024/02/22 02:57:06;;;;;;;29.65;4.95;;;10.20;99.90;;;;;;5033685;28;20032;-77
2024/02/22 02:59:31;;;;;;;42.28;5.20;;;10.30;99.90;;;;;;5056454;28;20037;-76
2024/02/22 03:01:57;;;;;;;26.38;4.35;;;10.30;99.90;;;;;;5055471;28;20036;-76
2024/02/22 03:04:22;;;;;;;33.72;4.70;;;10.30;99.90;;;;;;5056846;28;20037;-76
2024/02/22 03:06:48;;;;;;;30.23;5.00;;;10.20;99.90;;;;;;5058139;28;20036;-76
2024/02/22 03:09:14;;;;;;;35.80;5.13;;;10.20;99.90;;;;;;5037483;28;20129;-75
2024/02/22 03:11:40;;;;;;;26.45;4.88;;;10.20;99.90;;;;;;5040327;28;20024;-76
2024/02/22 03:14:06;;;;;;;32.20;5.40;;;10.10;99.90;;;;;;5034739;28;20443;-76
2024/02/22 03:16:32;;;;;;;30.17;4.25;;;10.10;99.90;;;;;;5038660;28;20513;-75
2024/02/22 03:18:58;;;;;;;32.92;4.63;;;10.10;99.90;;;;;;5041141;28;20103;-76
2024/02/22 03:21:24;;;;;;;26.98;5.63;;;10.10;99.90;;;;;;5055592;28;20143;-77
2024/02/22 03:23:53;;;;;;;28.30;3.85;;;10.00;99.90;;;;;;5056681;28;20122;-74
2024/02/22 03:26:18;;;;;;;23.25;3.58;;;10.00;99.90;;;;;;5058705;28;20389;-75
2024/02/22 03:28:45;;;;;;;24.92;5.47;;;10.00;99.90;;;;;;5065538;28;20044;-76
2024/02/22 03:31:10;;;;;;;26.00;4.68;;;9.90;99.90;;;;;;5065111;28;20024;-76
2024/02/22 03:33:36;;;;;;;38.67;4.57;;;9.90;99.90;;;;;;5034540;28;20406;-77
2024/02/22 03:36:02;;;;;;;32.05;4.32;;;9.90;99.90;;;;;;5064529;28;20047;-76
2024/02/22 03:38:27;;;;;;;34.22;5.93;;;10.00;99.90;;;;;;5064120;28;20032;-76
2024/02/22 03:40:53;;;;;;;31.98;4.80;;;10.00;99.90;;;;;;5067718;28;20031;-76
2024/02/22 03:43:19;;;;;;;23.83;4.10;;;9.90;99.90;;;;;;5067164;28;20374;-76
2024/02/22 03:45:45;;;;;;;36.72;4.63;;;9.90;99.90;;;;;;5069730;28;20040;-76
2024/02/22 03:48:11;;;;;;;28.88;4.82;;;9.90;99.90;;;;;;5050367;28;20029;-76
2024/02/22 03:50:36;;;;;;;29.27;4.13;;;9.90;99.90;;;;;;5068183;28;20086;-76
2024/02/22 03:53:02;;;;;;;29.08;5.68;;;9.90;99.90;;;;;;5061863;28;20033;-76
2024/02/22 03:55:30;;;;;;;32.17;4.55;;;10.00;99.90;;;;;;5067497;28;20031;-76
2024/02/22 03:57:56;;;;;;;42.83;5.57;;;10.00;99.90;;;;;;5067938;28;20060;-76
2024/02/22 04:00:21;;;;;;;38.88;5.13;;;10.00;99.90;;;;;;5062961;28;20068;-77
2024/02/22 04:02:48;;;;;;;35.78;4.72;;;10.00;99.90;;;;;;5068388;28;20060;-76
2024/02/22 04:05:14;;;;;;;35.10;6.25;;;10.00;99.90;;;;;;5068181;28;20127;-75
2024/02/22 04:07:43;;;;;;;23.48;4.07;;;10.00;99.90;;;;;;5064312;28;20032;-77
2024/02/22 04:10:10;;;;;;;34.83;4.18;;;10.00;99.90;;;;;;5059684;28;20101;-75
2024/02/22 04:12:35;;;;;;;33.92;4.07;;;10.00;99.90;;;;;;5064746;28;20036;-76
2024/02/22 04:15:01;;;;;;;25.40;3.85;;;10.00;99.90;;;;;;5067106;28;20047;-76
2024/02/22 04:17:27;;;;;;;31.67;3.50;;;10.00;99.90;;;;;;5062192;28;20045;-77
2024/02/22 04:19:53;;;;;;;39.78;5.38;;;10.00;99.90;;;;;;5067647;28;20044;-77
2024/02/22 04:22:19;;;;;;;41.42;5.53;;;9.90;99.90;;;;;;5046920;28;20044;-76
2024/02/22 04:24:45;;;;;;;31.95;4.03;;;9.90;99.90;;;;;;5066986;28;20119;-77
2024/02/22 04:27:10;;;;;;;27.10;3.97;;;9.90;99.90;;;;;;5062441;28;20124;-77
2024/02/22 04:29:36;;;;;;;35.65;6.13;;;9.90;99.90;;;;;;5065389;28;20041;-76
2024/02/22 04:32:02;;;;;;;32.45;6.50;;;9.90;99.90;;;;;;5045043;28;20520;-77
2024/02/22 04:34:27;;;;;;;29.13;4.85;;;9.90;99.90;;;;;;5046306;28;20041;-77
2024/02/22 04:36:53;;;;;;;28.63;4.63;;;9.90;99.90;;;;;;5048287;28;20099;-76
2024/02/22 04:39:18;;;;;;;50.25;6.25;;;9.90;99.90;;;;;;5044254;28;20200;-75
2024/02/22 04:41:44;;;;;;;44.30;7.05;;;9.90;99.90;;;;;;5065864;28;20029;-76
2024/02/22 04:44:10;;;;;;;34.50;5.10;;;9.80;99.90;;;;;;5046811;28;20037;-77
2024/02/22 04:46:36;;;;;;;35.38;5.93;;;9.80;99.90;;;;;;5064102;28;20032;-77
2024/02/22 04:49:04;;;;;;;23.88;4.35;;;9.80;99.90;;;;;;5042400;28;20032;-77
2024/02/22 04:51:33;;;;;;;29.40;5.47;;;9.70;99.90;;;;;;5064913;28;20033;-77
2024/02/22 04:54:00;;;;;;;25.55;5.32;;;9.70;99.90;;;;;;5038310;28;20029;-77
2024/02/22 04:56:28;;;;;;;48.00;5.57;;;9.70;99.90;;;;;;5063595;28;20091;-76
2024/02/22 04:58:54;;;;;;;30.83;4.13;;;9.70;99.90;;;;;;5067075;28;20028;-76
2024/02/22 05:01:20;;;;;;;36.35;5.30;;;9.70;99.90;;;;;;5043067;28;20045;-76
2024/02/22 05:03:46;;;;;;;35.20;5.47;;;9.60;99.90;;;;;;5065021;28;20090;-76
2024/02/22 05:06:12;;;;;;;35.42;5.30;;;9.60;99.90;;;;;;5063316;28;20043;-76
2024/02/22 05:08:37;;;;;;;31.30;4.47;;;9.70;99.90;;;;;;5063018;28;20044;-76
2024/02/22 05:11:06;;;;;;;26.63;4.32;;;9.70;99.90;;;;;;5045827;28;20107;-77
2024/02/22 05:13:32;;;;;;;61.45;6.72;;;9.80;99.90;;;;;;5059522;28;20588;-78
2024/02/22 05:15:58;;;;;;;28.50;4.38;;;9.80;99.90;;;;;;5043259;28;20081;-77
2024/02/22 05:18:23;;;;;;;34.22;4.13;;;9.70;99.90;;;;;;5039971;28;20064;-77
2024/02/22 05:20:50;;;;;;;23.25;4.43;;;9.70;99.90;;;;;;5064050;28;20039;-75
2024/02/22 05:23:15;;;;;;;38.20;5.72;;;9.70;99.90;;;;;;5061359;28;20120;-77
2024/02/22 05:25:41;;;;;;;23.98;3.03;;;9.80;99.90;;;;;;5061889;28;20127;-76
2024/02/22 05:28:08;;;;;;;23.40;3.75;;;9.70;99.90;;;;;;5044141;28;20115;-78
2024/02/22 05:30:34;;;;;;;21.33;3.75;;;9.60;99.90;;;;;;5058282;28;20031;-76
2024/02/22 05:32:59;;;;;;;19.92;4.28;;;9.60;99.90;;;;;;5046885;28;20032;-77
2024/02/22 05:35:25;;;;;;;23.92;3.38;;;9.50;99.90;;;;;;5064580;28;20039;-77
2024/02/22 05:37:50;;;;;;;26.58;4.90;;;9.40;99.90;;;;;;5044691;28;20068;-76
2024/02/22 05:40:16;;;;;;;17.20;2.88;;;9.40;99.90;;;;;;5058421;28;20032;-77
2024/02/22 05:42:42;;;;;;;23.60;3.60;;;9.30;99.90;;;;;;5060797;28;20036;-77
2024/02/22 05:45:08;;;;;;;23.48;3.47;;;9.20;99.90;;;;;;5061168;28;20505;-76
2024/02/22 05:47:33;;;;;;;20.80;3.67;;;9.10;99.90;;;;;;5041631;28;20086;-77
2024/02/22 05:49:59;;;;;;;26.85;4.55;;;9.10;99.90;;;;;;5039241;28;20037;-77
2024/02/22 05:52:26;;;;;;;22.50;3.92;;;9.10;99.90;;;;;;5047931;28;20113;-76
2024/02/22 05:54:53;;;;;;;30.77;5.10;;;9.00;99.90;;;;;;5042509;28;20116;-76
2024/02/22 05:57:18;;;;;;;27.55;3.47;;;9.00;99.90;;;;;;5043945;28;20098;-74
2024/02/22 05:59:44;;;;;;;32.50;4.32;;;8.90;99.90;;;;;;5048109;28;20045;-76
2024/02/22 06:02:10;;;;;;;41.70;4.53;;;8.90;99.90;;;;;;5060145;28;20386;-77
2024/02/22 06:04:35;;;;;;;30.48;3.67;;;8.90;99.90;;;;;;5045752;28;20464;-77
2024/02/22 06:07:01;;;;;;;35.35;5.80;;;8.90;99.90;;;;;;5046225;28;20045;-78
2024/02/22 06:09:27;;;;;;;30.75;3.05;;;8.90;99.90;;;;;;5057842;28;20029;-77
2024/02/22 06:11:53;;;;;;;22.98;4.20;;;9.00;99.90;;;;;;5058365;28;20029;-76
2024/02/22 06:14:19;;;;;;;15.95;3.35;;;9.00;99.90;;;;;;5057714;28;20100;-77
2024/02/22 06:16:44;;;;;;;21.52;2.92;;;9.00;99.90;;;;;;5048262;28;20081;-77
2024/02/22 06:19:10;;;;;;;22.80;3.95;;;9.10;99.90;;;;;;5064061;28;20032;-75
2024/02/22 06:21:36;;;;;;;21.08;2.60;;;9.00;99.90;;;;;;5052025;28;20048;-76
2024/02/22 06:24:01;;;;;;;20.02;2.47;;;9.10;99.90;;;;;;5065410;28;20036;-77
2024/02/22 06:26:33;;;;;;;22.67;3.60;;;9.10;99.90;;;;;;5065933;28;20105;-75
2024/02/22 06:28:59;;;;;;;14.38;2.63;;;9.10;99.90;;;;;;5070363;28;20421;-77
2024/02/22 06:31:25;;;;;;;17.67;2.83;;;9.10;99.90;;;;;;5037872;28;20062;-76
2024/02/22 06:33:52;;;;;;;18.35;2.08;;;9.10;99.90;;;;;;5044401;28;20028;-77
2024/02/22 06:36:18;;;;;;;21.83;3.42;;;9.00;99.90;;;;;;5050193;28;20029;-77
2024/02/22 06:38:45;;;;;;;25.33;3.97;;;8.90;99.90;;;;;;5068336;28;20032;-76
2024/02/22 06:41:11;;;;;;;17.60;3.28;;;8.80;99.90;;;;;;5062893;28;20024;-76
2024/02/22 06:43:37;;;;;;;27.40;3.20;;;8.80;99.90;;;;;;5069524;28;20046;-77
2024/02/22 06:46:03;;;;;;;20.25;4.28;;;8.80;99.90;;;;;;5050753;28;20044;-74
2024/02/22 06:48:29;;;;;;;29.92;3.53;;;8.80;99.90;;;;;;5058107;28;20042;-74
2024/02/22 06:50:56;;;;;;;17.90;3.03;;;8.80;99.90;;;;;;5060643;28;20755;-74
2024/02/22 06:53:21;;;;;;;18.75;2.83;;;8.80;99.90;;;;;;5030591;28;20030;-75
2024/02/22 06:55:47;;;;;;;16.73;4.47;;;8.80;99.90;;;;;;5032231;28;20116;-76
2024/02/22 06:58:13;;;;;;;26.45;3.65;;;8.90;99.90;;;;;;5030807;28;20033;-77
2024/02/22 07:00:38;;;;;;;26.85;3.72;;;8.90;99.90;;;;;;5027057;28;20044;-76
2024/02/22 07:03:04;;;;;;;18.40;3.05;;;9.00;99.90;;;;;;5029719;28;20021;-76
2024/02/22 07:05:30;;;;;;;26.48;4.63;;;9.00;99.90;;;;;;5030490;28;20103;-76
2024/02/22 07:07:55;;;;;;;20.33;3.70;;;9.10;99.90;;;;;;5033605;28;20027;-77
2024/02/22 07:10:21;;;;;;;17.85;2.65;;;9.10;99.90;;;;;;5032537;28;20056;-76
2024/02/22 07:12:47;;;;;;;16.25;3.40;;;9.20;99.90;;;;;;5032391;28;20045;-76
2024/02/22 07:15:15;;;;;;;28.83;4.55;;;9.20;99.90;;;;;;5028655;28;20028;-77
2024/02/22 07:17:40;;;;;;;14.85;3.08;;;9.20;99.90;;;;;;5033571;28;20036;-77
2024/02/22 07:20:06;;;;;;;20.00;2.63;;;9.30;99.90;;;;;;5029690;28;20055;-76
2024/02/22 07:22:32;;;;;;;16.92;3.00;;;9.30;99.90;;;;;;5031317;28;20045;-77
2024/02/22 07:24:58;;;;;;;25.73;3.38;;;9.30;99.90;;;;;;5027482;28;20433;-77
2024/02/22 07:27:25;;;;;;;18.90;3.08;;;9.40;99.90;;;;;;5034240;28;20045;-77
2024/02/22 07:29:50;;;;;;;24.67;4.25;;;9.40;99.90;;;;;;5029888;28;20086;-76
2024/02/22 07:32:16;;;;;;;16.30;2.70;;;9.50;99.90;;;;;;5032025;28;21196;-76
2024/02/22 07:34:41;;;;;;;15.68;2.63;;;9.50;99.90;;;;;;5029835;28;20045;-77
2024/02/22 07:37:07;;;;;;;13.50;2.80;;;9.50;99.90;;;;;;5032463;28;20044;-77
2024/02/22 07:39:33;;;;;;;17.17;2.83;;;9.50;99.90;;;;;;5029466;28;20041;-76
2024/02/22 07:41:58;;;;;;;15.43;2.92;;;9.50;99.90;;;;;;5028628;28;20513;-77
2024/02/22 07:44:24;;;;;;;17.10;3.83;;;9.50;99.90;;;;;;5029379;28;20040;-78
2024/02/22 07:46:51;;;;;;;20.83;2.95;;;9.50;99.90;;;;;;5036209;28;20033;-78
2024/02/22 07:49:18;;;;;;;13.13;3.10;;;9.60;99.90;;;;;;5029128;28;20132;-77
2024/02/22 07:51:43;;;;;;;20.60;3.25;;;9.60;99.90;;;;;;5029945;28;20116;-77
2024/02/22 07:54:09;;;;;;;22.95;3.40;;;9.60;99.90;;;;;;5030922;28;20857;-78
2024/02/22 07:56:39;;;;;;;18.38;4.45;;;9.60;99.90;;;;;;5034370;28;20558;-77
2024/02/22 07:59:05;;;;;;;28.42;6.30;;;9.60;99.90;;;;;;5037529;28;20037;-77
2024/02/22 08:01:30;;;;;;;19.05;3.78;;;9.60;99.90;;;;;;5030343;28;20030;-77
2024/02/22 08:03:56;;;;;;;20.02;5.35;;;9.60;99.90;;;;;;5029802;28;20124;-77
2024/02/22 08:06:21;;;;;;;16.73;4.07;;;9.60;99.90;;;;;;5046649;28;20051;-76
2024/02/22 08:08:47;;;;;;;33.00;6.93;;;9.70;99.90;;;;;;5028455;28;20037;-77
2024/02/22 08:11:12;;;;;;;17.40;5.72;;;9.60;99.90;;;;;;5048902;28;20092;-77
2024/02/22 08:13:38;;;;;;;21.08;5.32;;;9.70;99.90;;;;;;5040486;28;20052;-74
2024/02/22 08:16:05;;;;;;;20.85;5.20;;;9.70;99.90;;;;;;5019022;28;20029;-78
2024/02/22 08:18:32;;;;;;;10.48;4.90;;;9.80;99.90;;;;;;5027780;28;20040;-77
2024/02/22 08:20:58;;;;;;;15.75;4.10;;;9.80;99.90;;;;;;5017337;28;20044;-76
2024/02/22 08:23:23;;;;;;;17.83;4.20;;;9.90;99.90;;;;;;5038949;28;20577;-77
2024/02/22 08:25:49;;;;;;;12.75;4.68;;;10.00;99.90;;;;;;5033510;28;20048;-78
2024/02/22 08:28:15;;;;;;;10.98;4.20;;;10.00;99.90;;;;;;5024987;28;20044;-78
2024/02/22 08:30:41;;;;;;;14.45;4.60;;;10.00;99.90;;;;;;5042156;28;20056;-77
2024/02/22 08:33:06;;;;;;;10.68;3.00;;;10.10;99.90;;;;;;5025094;28;20060;-78
2024/02/22 08:35:32;;;;;;;10.77;3.20;;;10.10;99.90;;;;;;5022878;28;20033;-75
2024/02/22 08:37:57;;;;;;;13.68;3.65;;;10.20;99.90;;;;;;5028420;28;20179;-77
2024/02/22 08:40:23;;;;;;;7.40;2.75;;;10.10;99.90;;;;;;5043769;28;20041;-77
2024/02/22 08:42:49;;;;;;;9.02;2.88;;;10.20;99.90;;;;;;5025703;28;20064;-78
2024/02/22 08:45:16;;;;;;;7.38;3.03;;;10.20;99.90;;;;;;5043979;28;20041;-77
2024/02/22 08:47:42;;;;;;;9.15;3.03;;;10.20;99.90;;;;;;5022550;28;20102;-78
2024/02/22 08:50:09;;;;;;;6.93;2.50;;;10.20;99.90;;;;;;5044377;28;20033;-77
2024/02/22 08:52:36;;;;;;;8.73;3.70;;;10.20;99.90;;;;;;5022948;28;20086;-76
2024/02/22 08:55:03;;;;;;;11.65;4.03;;;10.20;99.90;;;;;;5023289;28;20033;-77
2024/02/22 08:57:28;;;;;;;11.32;2.97;;;10.20;99.90;;;;;;5025179;28;20029;-76
2024/02/22 08:59:54;;;;;;;7.63;2.60;;;10.20;99.90;;;;;;5023343;28;20044;-78
2024/02/22 09:02:21;;;;;;;7.97;2.70;;;10.20;99.90;;;;;;5041673;28;20038;-77
2024/02/22 09:04:47;;;;;;;12.57;2.78;;;10.20;99.90;;;;;;5031258;28;20409;-80
2024/02/22 09:07:13;;;;;;;5.88;2.85;;;10.30;99.90;;;;;;5043970;28;20033;-77
2024/02/22 09:09:39;;;;;;;5.95;2.47;;;10.30;99.90;;;;;;5046572;28;20123;-76
2024/02/22 09:12:05;;;;;;;5.15;2.15;;;10.40;99.90;;;;;;5049252;28;20183;-78
2024/02/22 09:14:30;;;;;;;5.63;1.88;;;10.50;99.90;;;;;;5039355;28;20037;-77
2024/02/22 09:16:56;;;;;;;4.75;1.85;;;10.60;99.90;;;;;;5039005;28;20041;-77
2024/02/22 09:19:23;;;;;;;3.40;1.95;;;10.60;99.90;;;;;;5034801;28;20025;-78
2024/02/22 09:21:48;;;;;;;4.18;1.92;;;10.60;99.90;;;;;;5040264;28;20585;-79
2024/02/22 09:24:14;;;;;;;5.55;1.58;;;10.70;99.90;;;;;;5036320;28;20039;-78
2024/02/22 09:26:40;;;;;;;6.80;2.22;;;10.60;99.90;;;;;;5035709;28;20041;-76
2024/02/22 09:29:05;;;;;;;3.20;1.80;;;10.70;99.90;;;;;;5038537;28;20033;-76
2024/02/22 09:31:32;;;;;;;3.50;1.98;;;10.70;99.90;;;;;;5035201;28;20033;-77
2024/02/22 09:34:00;;;;;;;4.53;2.65;;;10.70;99.90;;;;;;5037668;28;20025;-77
2024/02/22 09:36:26;;;;;;;4.03;1.77;;;10.70;99.90;;;;;;5033583;28;20037;-78
2024/02/22 09:38:52;;;;;;;2.65;1.33;;;10.80;99.90;;;;;;5026956;28;20028;-78
2024/02/22 09:41:19;;;;;;;6.13;1.90;;;10.80;99.90;;;;;;5044704;28;20041;-78
2024/02/22 09:43:45;;;;;;;6.30;2.00;;;10.80;99.90;;;;;;5040710;28;20040;-76
2024/02/22 09:46:11;;;;;;;3.00;1.73;;;11.00;99.90;;;;;;5047137;28;20041;-77
2024/02/22 09:48:37;;;;;;;3.35;1.85;;;11.10;99.90;;;;;;5050173;28;20059;-77
2024/02/22 09:51:05;;;;;;;4.80;2.47;;;11.20;99.90;;;;;;5067531;28;20102;-79
2024/02/22 09:53:31;;;;;;;4.75;1.80;;;11.20;99.90;;;;;;5046796;28;20481;-77
2024/02/22 09:55:57;;;;;;;4.10;1.75;;;11.40;99.90;;;;;;5033871;28;20044;-76
2024/02/22 09:58:23;;;;;;;5.22;1.55;;;11.50;99.90;;;;;;5052704;28;20041;-78
2024/02/22 10:00:50;;;;;;;3.85;1.40;;;11.60;99.90;;;;;;5052970;28;20750;-76
2024/02/22 10:03:16;;;;;;;2.63;1.35;;;11.50;99.90;;;;;;5038070;28;20048;-77
2024/02/22 10:05:41;;;;;;;2.65;1.63;;;11.50;99.90;;;;;;5036919;28;20048;-77
2024/02/22 10:08:12;;;;;;;4.15;2.28;;;11.30;99.90;;;;;;5033059;28;20094;-78
2024/02/22 10:10:40;;;;;;;4.72;1.60;;;11.20;99.90;;;;;;5034717;28;20053;-77
2024/02/22 10:13:06;;;;;;;2.22;1.50;;;11.20;99.90;;;;;;5035455;28;20166;-77
2024/02/22 10:15:33;;;;;;;3.35;1.90;;;11.20;99.90;;;;;;5054165;28;20551;-77
2024/02/22 10:17:59;;;;;;;3.95;1.83;;;11.30;99.90;;;;;;5042618;28;20150;-77
2024/02/22 10:20:32;;;;;;;3.80;1.67;;;11.30;99.90;;;;;;5055772;28;20115;-78
2024/02/22 10:23:05;;;;;;;2.78;1.55;;;11.50;99.90;;;;;;5036288;28;20130;-79
2024/02/22 10:25:31;;;;;;;4.00;1.50;;;11.50;99.90;;;;;;5047874;28;20059;-77
2024/02/22 10:27:56;;;;;;;2.83;1.55;;;11.60;99.90;;;;;;5034021;28;20128;-78
2024/02/22 10:30:26;;;;;;;3.97;1.67;;;11.60;99.90;;;;;;5036648;28;20041;-76
2024/02/22 10:32:55;;;;;;;4.30;1.52;;;11.60;99.90;;;;;;5034625;28;20033;-77
2024/02/22 10:35:23;;;;;;;3.50;1.52;;;11.50;99.90;;;;;;5038129;28;20036;-77
2024/02/22 10:37:52;;;;;;;1.80;1.15;;;11.50;99.90;;;;;;5039505;28;20031;-78
2024/02/22 10:40:18;;;;;;;1.90;1.20;;;11.50;99.90;;;;;;5035575;28;20059;-77
2024/02/22 10:42:44;;;;;;;3.60;1.10;;;11.60;99.90;;;;;;5034382;28;20037;-77
2024/02/22 10:45:10;;;;;;;1.88;0.75;;;11.60;99.90;;;;;;5040174;28;20155;-77
2024/02/22 10:47:37;;;;;;;2.03;0.80;;;11.60;99.90;;;;;;5057771;28;20167;-76
2024/02/22 10:50:05;;;;;;;2.00;0.98;;;11.60;99.90;;;;;;5061224;28;20033;-79
2024/02/22 10:52:37;;;;;;;2.85;1.08;;;11.60;99.90;;;;;;5055423;28;20165;-80
2024/02/22 10:55:06;;;;;;;4.15;0.93;;;11.60;99.90;;;;;;5038780;28;20498;-77
2024/02/22 10:57:35;;;;;;;2.28;1.05;;;11.50;99.90;;;;;;5038011;28;20033;-78
2024/02/22 11:00:02;;;;;;;2.15;0.90;;;11.50;99.90;;;;;;5037920;28;20027;-77
2024/02/22 11:02:28;;;;;;;1.55;0.77;;;11.50;99.90;;;;;;5037496;28;20055;-77
2024/02/22 11:05:03;;;;;;;1.27;0.90;;;11.40;99.90;;;;;;5040795;28;20090;-77
2024/02/22 11:07:29;;;;;;;1.33;1.02;;;11.40;99.90;;;;;;5025583;28;20446;-77
2024/02/22 11:10:06;;;;;;;1.52;0.90;;;11.30;99.90;;;;;;5042204;28;20085;-77
2024/02/22 11:12:33;;;;;;;2.00;1.00;;;11.30;99.90;;;;;;5045451;28;20111;-76
2024/02/22 11:15:10;;;;;;;1.60;1.17;;;11.20;99.90;;;;;;5024158;28;20090;-75
2024/02/22 11:17:36;;;;;;;2.20;1.08;;;11.20;99.90;;;;;;5044141;28;20030;-77
2024/02/22 11:20:11;;;;;;;2.03;1.20;;;11.20;99.90;;;;;;5042449;28;20064;-78
2024/02/22 11:22:37;;;;;;;2.55;1.38;;;11.20;99.90;;;;;;5021764;28;20048;-76
2024/02/22 11:25:09;;;;;;;3.70;1.60;;;11.20;99.90;;;;;;5043862;28;20036;-76
2024/02/22 11:27:39;;;;;;;2.55;1.40;;;11.30;99.90;;;;;;5046978;28;20478;-79
2024/02/22 11:30:17;;;;;;;2.58;1.50;;;11.40;99.90;;;;;;5024312;28;20120;-77
2024/02/22 11:32:47;;;;;;;3.13;1.63;;;11.40;99.90;;;;;;5041443;28;20037;-79
2024/02/22 11:35:13;;;;;;;3.33;1.50;;;11.50;99.90;;;;;;5047589;28;20051;-77
2024/02/22 11:37:39;;;;;;;3.13;1.70;;;11.50;99.90;;;;;;5050701;28;20454;-77
2024/02/22 11:40:09;;;;;;;2.55;1.50;;;11.50;99.90;;;;;;5047367;28;20519;-76
2024/02/22 11:42:35;;;;;;;2.35;1.23;;;11.60;99.90;;;;;;5023863;28;20037;-78
2024/02/22 11:45:11;;;;;;;3.17;1.65;;;11.60;99.90;;;;;;5043937;28;20895;-78
2024/02/22 11:47:37;;;;;;;4.80;2.05;;;11.60;99.90;;;;;;5032804;28;20037;-78
2024/02/22 11:50:04;;;;;;;7.15;2.38;;;11.60;99.90;;;;;;5030594;28;20080;-79
2024/02/22 11:52:29;;;;;;;3.40;1.95;;;11.80;99.90;;;;;;5033856;28;20068;-78
2024/02/22 11:54:55;;;;;;;2.70;1.80;;;11.80;99.90;;;;;;5039226;28;20029;-79
2024/02/22 11:57:20;;;;;;;5.88;2.35;;;11.90;99.90;;;;;;5033969;28;20115;-80
2024/02/22 11:59:46;;;;;;;3.88;2.35;;;11.90;99.90;;;;;;5041227;28;20028;-78
2024/02/22 12:02:12;;;;;;;4.07;2.33;;;11.80;99.90;;;;;;5037474;28;20059;-77
2024/02/22 12:04:38;;;;;;;3.83;2.13;;;11.80;99.90;;;;;;5038950;28;20123;-77
2024/02/22 12:07:04;;;;;;;4.05;2.42;;;11.80;99.90;;;;;;5039351;28;20494;-78
2024/02/22 12:09:30;;;;;;;3.63;2.47;;;11.80;99.90;;;;;;5034885;28;20049;-80
2024/02/22 12:11:56;;;;;;;3.35;2.33;;;11.80;99.90;;;;;;5056183;28;20393;-77
2024/02/22 12:14:22;;;;;;;2.88;2.00;;;11.80;99.90;;;;;;5029497;28;20486;-80
2024/02/22 12:16:49;;;;;;;3.13;2.00;;;11.90;99.90;;;;;;5052201;28;20037;-78
2024/02/22 12:19:16;;;;;;;4.18;1.67;;;11.80;99.90;;;;;;5028956;28;20028;-76
2024/02/22 12:21:42;;;;;;;2.88;2.10;;;11.90;99.90;;;;;;5047029;28;20037;-78
2024/02/22 12:24:09;;;;;;;2.35;1.70;;;11.90;99.90;;;;;;5032730;28;20036;-80
2024/02/22 12:26:34;;;;;;;2.13;1.58;;;11.90;99.90;;;;;;5031439;28;20032;-78
2024/02/22 12:29:01;;;;;;;1.83;1.50;;;12.00;99.90;;;;;;5050146;28;20041;-78
2024/02/22 12:31:27;;;;;;;2.53;1.25;;;12.00;99.90;;;;;;5019533;28;20490;-75
2024/02/22 12:33:54;;;;;;;1.95;1.30;;;12.10;99.90;;;;;;5051557;28;20039;-76
2024/02/22 12:36:21;;;;;;;3.20;1.17;;;12.10;99.90;;;;;;5044268;28;20044;-76
2024/02/22 12:38:48;;;;;;;1.67;1.10;;;12.10;99.90;;;;;;5049812;28;20522;-77
2024/02/22 12:41:15;;;;;;;2.42;1.20;;;12.10;99.90;;;;;;5040600;28;20037;-78